sensor_id;sensor_type;location;lat;lon;timestamp;temperature;humidity
40630;DHT22;26329;40.388;-3.710;2023-04-15T00:05:51;15.50;52.40
40630;DHT22;26329;40.388;-3.710;2023-04-15T00:15:53;15.30;53.40
40630;DHT22;26329;40.388;-3.710;2023-04-15T00:25:54;15.20;53.80
40630;DHT22;26329;40.388;-3.710;2023-04-15T00:35:55;15.00;54.50
40630;DHT22;26329;40.388;-3.710;2023-04-15T00:45:58;15.00;54.60
40630;DHT22;26329;40.388;-3.710;2023-04-15T00:56:00;14.80;54.90
40630;DHT22;26329;40.388;-3.710;2023-04-15T01:06:02;14.70;54.80
40630;DHT22;26329;40.388;-3.710;2023-04-15T01:16:04;14.50;54.80
40630;DHT22;26329;40.388;-3.710;2023-04-15T01:26:06;14.40;54.90
40630;DHT22;26329;40.388;-3.710;2023-04-15T01:36:09;14.30;54.70
40630;DHT22;26329;40.388;-3.710;2023-04-15T01:46:10;14.30;54.90
40630;DHT22;26329;40.388;-3.710;2023-04-15T01:56:12;14.10;55.40
40630;DHT22;26329;40.388;-3.710;2023-04-15T02:06:16;14.00;55.60
40630;DHT22;26329;40.388;-3.710;2023-04-15T02:16:18;13.90;55.70
40630;DHT22;26329;40.388;-3.710;2023-04-15T02:26:20;13.90;56.00
40630;DHT22;26329;40.388;-3.710;2023-04-15T02:36:22;13.80;55.90
40630;DHT22;26329;40.388;-3.710;2023-04-15T02:46:23;13.80;56.00
40630;DHT22;26329;40.388;-3.710;2023-04-15T02:56:25;13.60;56.20
40630;DHT22;26329;40.388;-3.710;2023-04-15T03:06:27;13.60;56.20
40630;DHT22;26329;40.388;-3.710;2023-04-15T03:16:28;13.50;56.20
40630;DHT22;26329;40.388;-3.710;2023-04-15T03:26:30;13.40;56.20
40630;DHT22;26329;40.388;-3.710;2023-04-15T03:36:32;13.40;56.00
40630;DHT22;26329;40.388;-3.710;2023-04-15T03:46:33;13.30;56.20
40630;DHT22;26329;40.388;-3.710;2023-04-15T03:56:34;13.30;56.10
40630;DHT22;26329;40.388;-3.710;2023-04-15T04:06:36;13.10;56.30
40630;DHT22;26329;40.388;-3.710;2023-04-15T04:16:37;13.10;56.20
40630;DHT22;26329;40.388;-3.710;2023-04-15T04:26:38;13.00;56.30
40630;DHT22;26329;40.388;-3.710;2023-04-15T04:36:39;12.90;56.30
40630;DHT22;26329;40.388;-3.710;2023-04-15T04:46:41;12.90;56.10
40630;DHT22;26329;40.388;-3.710;2023-04-15T04:56:42;12.90;56.20
40630;DHT22;26329;40.388;-3.710;2023-04-15T05:06:43;12.80;56.20
40630;DHT22;26329;40.388;-3.710;2023-04-15T05:16:45;12.80;56.00
40630;DHT22;26329;40.388;-3.710;2023-04-15T05:26:46;12.70;56.10
40630;DHT22;26329;40.388;-3.710;2023-04-15T05:36:48;12.70;56.00
40630;DHT22;26329;40.388;-3.710;2023-04-15T05:46:49;12.60;56.10
40630;DHT22;26329;40.388;-3.710;2023-04-15T05:56:50;12.60;56.00
40630;DHT22;26329;40.388;-3.710;2023-04-15T06:06:52;12.60;55.40
40630;DHT22;26329;40.388;-3.710;2023-04-15T06:16:53;12.70;54.90
40630;DHT22;26329;40.388;-3.710;2023-04-15T06:26:54;12.70;54.50
40630;DHT22;26329;40.388;-3.710;2023-04-15T06:36:56;12.80;54.00
40630;DHT22;26329;40.388;-3.710;2023-04-15T06:46:57;12.90;53.60
40630;DHT22;26329;40.388;-3.710;2023-04-15T06:56:59;13.20;53.00
40630;DHT22;26329;40.388;-3.710;2023-04-15T07:07:00;13.40;51.90
40630;DHT22;26329;40.388;-3.710;2023-04-15T07:17:02;13.80;50.70
40630;DHT22;26329;40.388;-3.710;2023-04-15T07:27:04;14.30;49.10
40630;DHT22;26329;40.388;-3.710;2023-04-15T07:37:05;15.00;46.90
40630;DHT22;26329;40.388;-3.710;2023-04-15T07:47:06;15.30;46.10
40630;DHT22;26329;40.388;-3.710;2023-04-15T07:57:08;15.80;45.10
40630;DHT22;26329;40.388;-3.710;2023-04-15T08:07:09;16.00;44.80
40630;DHT22;26329;40.388;-3.710;2023-04-15T08:17:11;16.10;44.30
40630;DHT22;26329;40.388;-3.710;2023-04-15T08:27:12;16.30;43.80
40630;DHT22;26329;40.388;-3.710;2023-04-15T08:37:14;16.50;43.50
40630;DHT22;26329;40.388;-3.710;2023-04-15T08:47:19;16.70;42.70
40630;DHT22;26329;40.388;-3.710;2023-04-15T08:57:29;17.10;42.60
40630;DHT22;26329;40.388;-3.710;2023-04-15T09:07:33;17.20;42.00
40630;DHT22;26329;40.388;-3.710;2023-04-15T09:17:41;17.40;41.10
40630;DHT22;26329;40.388;-3.710;2023-04-15T09:27:49;17.60;41.40
40630;DHT22;26329;40.388;-3.710;2023-04-15T09:37:51;17.80;40.20
40630;DHT22;26329;40.388;-3.710;2023-04-15T09:47:52;17.90;39.40
40630;DHT22;26329;40.388;-3.710;2023-04-15T09:57:54;18.10;39.00
40630;DHT22;26329;40.388;-3.710;2023-04-15T10:07:56;18.20;39.20
40630;DHT22;26329;40.388;-3.710;2023-04-15T10:17:59;18.30;38.00
40630;DHT22;26329;40.388;-3.710;2023-04-15T10:28:01;18.70;38.20
40630;DHT22;26329;40.388;-3.710;2023-04-15T10:38:37;18.70;37.30
40630;DHT22;26329;40.388;-3.710;2023-04-15T10:48:38;18.80;37.00
40630;DHT22;26329;40.388;-3.710;2023-04-15T10:58:46;18.80;36.40
40630;DHT22;26329;40.388;-3.710;2023-04-15T11:08:51;19.20;36.50
40630;DHT22;26329;40.388;-3.710;2023-04-15T11:18:54;19.50;35.50
40630;DHT22;26329;40.388;-3.710;2023-04-15T11:28:56;19.70;34.10
40630;DHT22;26329;40.388;-3.710;2023-04-15T11:38:59;19.90;34.00
40630;DHT22;26329;40.388;-3.710;2023-04-15T11:49:01;20.20;32.90
40630;DHT22;26329;40.388;-3.710;2023-04-15T11:59:02;20.30;33.60
40630;DHT22;26329;40.388;-3.710;2023-04-15T12:09:14;20.50;32.60
40630;DHT22;26329;40.388;-3.710;2023-04-15T12:19:25;20.70;32.10
40630;DHT22;26329;40.388;-3.710;2023-04-15T12:29:28;20.80;32.40
40630;DHT22;26329;40.388;-3.710;2023-04-15T12:39:30;20.60;32.10
40630;DHT22;26329;40.388;-3.710;2023-04-15T12:49:32;20.80;31.90
40630;DHT22;26329;40.388;-3.710;2023-04-15T12:59:35;21.30;31.80
40630;DHT22;26329;40.388;-3.710;2023-04-15T13:09:36;21.30;31.40
40630;DHT22;26329;40.388;-3.710;2023-04-15T13:19:38;21.60;30.90
40630;DHT22;26329;40.388;-3.710;2023-04-15T13:29:39;21.80;31.30
40630;DHT22;26329;40.388;-3.710;2023-04-15T13:39:40;21.80;30.90
40630;DHT22;26329;40.388;-3.710;2023-04-15T13:49:42;21.90;30.50
40630;DHT22;26329;40.388;-3.710;2023-04-15T13:59:44;21.80;30.70
40630;DHT22;26329;40.388;-3.710;2023-04-15T14:09:45;21.80;30.70
40630;DHT22;26329;40.388;-3.710;2023-04-15T14:19:48;21.80;30.60
40630;DHT22;26329;40.388;-3.710;2023-04-15T14:29:49;22.00;30.60
40630;DHT22;26329;40.388;-3.710;2023-04-15T14:39:51;22.30;30.30
40630;DHT22;26329;40.388;-3.710;2023-04-15T14:49:52;22.30;30.30
40630;DHT22;26329;40.388;-3.710;2023-04-15T14:59:53;22.40;30.30
40630;DHT22;26329;40.388;-3.710;2023-04-15T15:09:56;22.40;31.20
40630;DHT22;26329;40.388;-3.710;2023-04-15T15:19:58;22.20;32.40
40630;DHT22;26329;40.388;-3.710;2023-04-15T15:29:59;22.60;31.80
40630;DHT22;26329;40.388;-3.710;2023-04-15T15:40:04;22.80;31.10
40630;DHT22;26329;40.388;-3.710;2023-04-15T15:50:06;22.70;30.60
40630;DHT22;26329;40.388;-3.710;2023-04-15T16:00:08;22.60;31.70
40630;DHT22;26329;40.388;-3.710;2023-04-15T16:10:09;22.40;32.00
40630;DHT22;26329;40.388;-3.710;2023-04-15T16:20:12;22.50;31.40
40630;DHT22;26329;40.388;-3.710;2023-04-15T16:30:14;22.60;31.60
40630;DHT22;26329;40.388;-3.710;2023-04-15T16:40:15;22.70;31.50
40630;DHT22;26329;40.388;-3.710;2023-04-15T16:50:17;22.80;31.40
40630;DHT22;26329;40.388;-3.710;2023-04-15T17:00:18;22.70;31.70
40630;DHT22;26329;40.388;-3.710;2023-04-15T17:10:20;22.60;31.70
40630;DHT22;26329;40.388;-3.710;2023-04-15T17:20:21;22.70;32.00
40630;DHT22;26329;40.388;-3.710;2023-04-15T17:30:23;22.50;32.40
40630;DHT22;26329;40.388;-3.710;2023-04-15T17:40:24;22.50;32.10
40630;DHT22;26329;40.388;-3.710;2023-04-15T17:50:26;22.30;32.30
40630;DHT22;26329;40.388;-3.710;2023-04-15T18:00:27;22.20;32.30
40630;DHT22;26329;40.388;-3.710;2023-04-15T18:10:29;21.80;32.60
40630;DHT22;26329;40.388;-3.710;2023-04-15T18:20:30;21.50;33.30
40630;DHT22;26329;40.388;-3.710;2023-04-15T18:30:33;21.50;33.40
40630;DHT22;26329;40.388;-3.710;2023-04-15T18:40:34;21.30;33.70
40630;DHT22;26329;40.388;-3.710;2023-04-15T18:50:36;21.00;34.40
40630;DHT22;26329;40.388;-3.710;2023-04-15T19:00:37;20.80;34.60
40630;DHT22;26329;40.388;-3.710;2023-04-15T19:10:42;20.80;34.60
40630;DHT22;26329;40.388;-3.710;2023-04-15T19:20:43;20.60;35.20
40630;DHT22;26329;40.388;-3.710;2023-04-15T19:30:44;20.50;35.50
40630;DHT22;26329;40.388;-3.710;2023-04-15T19:40:46;20.30;35.90
40630;DHT22;26329;40.388;-3.710;2023-04-15T19:50:47;20.20;36.20
40630;DHT22;26329;40.388;-3.710;2023-04-15T20:00:48;20.00;37.40
40630;DHT22;26329;40.388;-3.710;2023-04-15T20:10:50;19.90;37.90
40630;DHT22;26329;40.388;-3.710;2023-04-15T20:20:51;19.80;38.30
40630;DHT22;26329;40.388;-3.710;2023-04-15T20:30:53;19.50;38.90
40630;DHT22;26329;40.388;-3.710;2023-04-15T20:40:54;19.40;39.30
40630;DHT22;26329;40.388;-3.710;2023-04-15T20:50:56;19.30;39.70
40630;DHT22;26329;40.388;-3.710;2023-04-15T21:00:57;19.20;41.10
40630;DHT22;26329;40.388;-3.710;2023-04-15T21:10:59;18.80;42.30
40630;DHT22;26329;40.388;-3.710;2023-04-15T21:21:01;18.30;43.00
40630;DHT22;26329;40.388;-3.710;2023-04-15T21:31:02;18.30;43.00
40630;DHT22;26329;40.388;-3.710;2023-04-15T21:41:03;18.10;43.10
40630;DHT22;26329;40.388;-3.710;2023-04-15T21:51:09;17.90;43.40
40630;DHT22;26329;40.388;-3.710;2023-04-15T22:01:11;17.80;43.50
40630;DHT22;26329;40.388;-3.710;2023-04-15T22:11:18;17.70;44.00
40630;DHT22;26329;40.388;-3.710;2023-04-15T22:21:23;17.60;44.00
40630;DHT22;26329;40.388;-3.710;2023-04-15T22:31:24;17.50;44.10
40630;DHT22;26329;40.388;-3.710;2023-04-15T22:41:26;17.40;44.00
40630;DHT22;26329;40.388;-3.710;2023-04-15T22:51:27;17.40;43.80
40630;DHT22;26329;40.388;-3.710;2023-04-15T23:01:28;17.30;43.80
40630;DHT22;26329;40.388;-3.710;2023-04-15T23:11:31;17.20;44.10
40630;DHT22;26329;40.388;-3.710;2023-04-15T23:21:33;17.10;44.30
40630;DHT22;26329;40.388;-3.710;2023-04-15T23:31:34;17.00;44.60
40630;DHT22;26329;40.388;-3.710;2023-04-15T23:41:36;16.90;45.00
40630;DHT22;26329;40.388;-3.710;2023-04-15T23:51:37;16.70;45.50
